Time;durP1;ratioP1;P1;durP2;ratioP2;P2;SDS_P1;SDS_P2;PMS_P1;PMS_P2;Temp;Humidity;BMP_temperature;BMP_pressure;BME280_temperature;BME280_humidity;BME280_pressure;Samples;Min_cycle;Max_cycle;Signal;HPM_P1;HPM_P2
2023/07/20 00:01:45;;;;;;;1.00;0.63;;;22.00;55.60;;;;;;4977495;28;20057;-62
2023/07/20 00:04:11;;;;;;;2.42;0.80;;;22.00;55.70;;;;;;4978113;28;20066;-59
2023/07/20 00:06:40;;;;;;;1.00;0.80;;;22.00;55.70;;;;;;4977653;28;20113;-61
2023/07/20 00:09:09;;;;;;;2.30;0.85;;;22.00;56.20;;;;;;4974527;28;20134;-60
2023/07/20 00:11:38;;;;;;;3.10;1.25;;;22.00;56.40;;;;;;4975775;28;20038;-60
2023/07/20 00:14:05;;;;;;;1.60;0.82;;;22.00;56.30;;;;;;4975295;28;20038;-62
2023/07/20 00:16:31;;;;;;;1.83;0.90;;;22.00;56.00;;;;;;4973699;28;20062;-60
2023/07/20 00:18:56;;;;;;;1.98;0.90;;;21.90;56.00;;;;;;4974741;28;20077;-60
2023/07/20 00:21:22;;;;;;;1.15;0.90;;;21.90;56.10;;;;;;4974634;28;20046;-61
2023/07/20 00:23:47;;;;;;;3.72;0.70;;;21.90;56.10;;;;;;4973981;28;20070;-61
2023/07/20 00:26:13;;;;;;;3.05;1.08;;;21.90;56.00;;;;;;4971357;28;20041;-62
2023/07/20 00:28:38;;;;;;;1.25;0.80;;;21.90;56.10;;;;;;4971085;28;20039;-61
2023/07/20 00:31:04;;;;;;;1.50;0.65;;;21.80;56.10;;;;;;4967525;28;20046;-60
2023/07/20 00:33:30;;;;;;;3.90;0.80;;;21.80;56.10;;;;;;4967724;28;20407;-61
2023/07/20 00:35:56;;;;;;;1.48;0.85;;;21.80;56.30;;;;;;4970050;28;20126;-62
2023/07/20 00:38:22;;;;;;;2.40;0.80;;;21.80;56.30;;;;;;4966896;28;20071;-62
2023/07/20 00:40:49;;;;;;;2.65;1.00;;;21.80;56.60;;;;;;4966434;28;20142;-61
2023/07/20 00:43:15;;;;;;;1.45;0.82;;;21.90;56.60;;;;;;4975362;28;20117;-62
2023/07/20 00:45:41;;;;;;;1.42;0.80;;;21.90;56.80;;;;;;4975886;28;20113;-62
2023/07/20 00:48:07;;;;;;;1.33;1.00;;;21.90;56.60;;;;;;4977127;28;20122;-61
2023/07/20 00:50:34;;;;;;;1.83;0.80;;;21.90;56.60;;;;;;4975491;28;20038;-62
2023/07/20 00:53:00;;;;;;;2.97;0.93;;;21.80;56.60;;;;;;4978596;28;20395;-59
2023/07/20 00:55:26;;;;;;;1.20;0.80;;;21.80;56.70;;;;;;4977036;28;20224;-60
2023/07/20 00:57:53;;;;;;;2.88;1.00;;;21.80;56.70;;;;;;4975197;28;20023;-61
2023/07/20 01:00:18;;;;;;;1.13;0.80;;;21.70;56.70;;;;;;4967648;28;20049;-62
2023/07/20 01:02:45;;;;;;;3.03;1.00;;;21.70;56.90;;;;;;4976038;28;20351;-62
2023/07/20 01:05:12;;;;;;;4.63;1.02;;;21.70;56.80;;;;;;4977062;28;20038;-61
2023/07/20 01:08:02;;;;;;;1.88;1.20;;;21.60;56.60;;;;;;4976782;28;20022;-61
2023/07/20 01:10:44;;;;;;;3.15;1.10;;;21.60;56.80;;;;;;4978252;28;20334;-59
2023/07/20 01:13:10;;;;;;;2.20;1.13;;;21.50;56.80;;;;;;4975600;28;20439;-60
2023/07/20 01:15:36;;;;;;;1.23;1.13;;;21.50;56.40;;;;;;4972822;28;20027;-62
2023/07/20 01:18:04;;;;;;;1.95;1.27;;;21.40;56.50;;;;;;4967227;28;20031;-60
2023/07/20 01:20:31;;;;;;;2.95;1.20;;;21.40;56.50;;;;;;4967832;28;20050;-59
2023/07/20 01:23:21;;;;;;;1.88;1.08;;;21.30;56.60;;;;;;4966605;28;20046;-61
2023/07/20 01:25:55;;;;;;;3.50;1.13;;;21.20;57.20;;;;;;4967256;28;20038;-62
2023/07/20 01:29:06;;;;;;;3.75;1.10;;;21.20;57.00;;;;;;4971451;28;20557;-62
2023/07/20 01:31:37;;;;;;;3.30;1.00;;;21.20;57.20;;;;;;4959417;28;20065;-59
2023/07/20 01:34:05;;;;;;;2.67;1.50;;;21.10;57.00;;;;;;4967996;28;20039;-60
2023/07/20 01:36:35;;;;;;;4.50;1.75;;;21.00;57.10;;;;;;4966565;28;20086;-60
2023/07/20 01:39:02;;;;;;;5.70;1.98;;;21.00;57.40;;;;;;4966850;28;20042;-60
2023/07/20 01:41:27;;;;;;;2.38;1.63;;;21.00;58.10;;;;;;4966074;28;20057;-60
2023/07/20 01:43:57;;;;;;;1.90;1.45;;;21.00;57.60;;;;;;4968473;28;20526;-58
2023/07/20 01:46:22;;;;;;;2.55;1.30;;;21.00;57.80;;;;;;4967795;28;20061;-62
2023/07/20 01:48:48;;;;;;;1.88;1.20;;;20.90;57.90;;;;;;4964778;28;20406;-61
2023/07/20 01:51:14;;;;;;;1.77;1.20;;;20.80;58.00;;;;;;4967139;28;20039;-60
2023/07/20 01:53:39;;;;;;;1.25;1.10;;;20.80;57.90;;;;;;4970531;28;20487;-61
2023/07/20 01:56:05;;;;;;;5.05;1.48;;;20.80;57.90;;;;;;4969475;28;20486;-61
2023/07/20 01:58:30;;;;;;;2.42;1.50;;;20.80;57.90;;;;;;4972243;28;20064;-60
2023/07/20 02:00:56;;;;;;;1.95;1.42;;;20.80;57.90;;;;;;4975443;28;20149;-62
2023/07/20 02:03:23;;;;;;;3.08;1.63;;;20.80;57.80;;;;;;4970971;28;20039;-62
2023/07/20 02:05:49;;;;;;;3.38;1.48;;;20.80;57.70;;;;;;4972617;28;20038;-62
2023/07/20 02:08:15;;;;;;;3.92;1.73;;;20.80;57.60;;;;;;4970973;28;20050;-62
2023/07/20 02:10:42;;;;;;;5.32;1.52;;;20.80;57.50;;;;;;4971944;28;20481;-62
2023/07/20 02:13:07;;;;;;;3.50;1.55;;;20.80;57.50;;;;;;4969621;28;20038;-61
2023/07/20 02:15:33;;;;;;;1.92;1.33;;;20.80;57.60;;;;;;4974608;28;20031;-60
2023/07/20 02:17:58;;;;;;;2.47;1.50;;;20.80;57.60;;;;;;4971493;28;20050;-62
2023/07/20 02:20:24;;;;;;;2.60;1.60;;;20.80;57.70;;;;;;4971388;28;20145;-60
2023/07/20 02:22:49;;;;;;;2.17;1.50;;;20.70;57.80;;;;;;4969709;28;20514;-62
2023/07/20 02:25:16;;;;;;;1.40;1.17;;;20.70;58.00;;;;;;4971897;28;20046;-60
2023/07/20 02:27:41;;;;;;;2.85;1.50;;;20.70;58.00;;;;;;4968904;28;20046;-61
2023/07/20 02:30:09;;;;;;;2.05;1.50;;;20.70;58.00;;;;;;4970775;28;20065;-61
2023/07/20 02:32:34;;;;;;;4.00;1.45;;;20.70;58.10;;;;;;4972131;28;20034;-60
2023/07/20 02:35:00;;;;;;;3.72;1.40;;;20.60;58.00;;;;;;4969100;28;20415;-62
2023/07/20 02:37:26;;;;;;;1.92;1.65;;;20.60;58.10;;;;;;4971465;28;20488;-61
2023/07/20 02:39:51;;;;;;;4.00;1.70;;;20.60;58.10;;;;;;4970285;28;20038;-61
2023/07/20 02:42:17;;;;;;;1.67;1.58;;;20.50;58.10;;;;;;4970669;28;20526;-61
2023/07/20 02:44:43;;;;;;;3.72;1.75;;;20.50;58.30;;;;;;4973331;28;20085;-59
2023/07/20 02:47:08;;;;;;;2.50;1.50;;;20.50;58.30;;;;;;4972549;28;20041;-60
2023/07/20 02:49:34;;;;;;;1.80;1.40;;;20.40;58.30;;;;;;4969354;28;20050;-62
2023/07/20 02:52:00;;;;;;;2.03;1.42;;;20.40;58.30;;;;;;4969375;28;20050;-61
2023/07/20 02:54:25;;;;;;;3.00;2.00;;;20.30;58.60;;;;;;4970942;28;20100;-62
2023/07/20 02:56:51;;;;;;;1.80;1.40;;;20.30;58.60;;;;;;4977032;28;20027;-63
2023/07/20 02:59:17;;;;;;;3.50;1.65;;;20.20;58.50;;;;;;4969343;28;20097;-60
2023/07/20 03:01:42;;;;;;;2.83;1.50;;;20.30;58.60;;;;;;4972918;28;20067;-62
2023/07/20 03:04:10;;;;;;;3.55;2.22;;;20.20;58.50;;;;;;4970262;28;20034;-61
2023/07/20 03:06:36;;;;;;;4.85;1.98;;;20.20;58.70;;;;;;4970343;28;20106;-60
2023/07/20 03:09:02;;;;;;;3.08;1.40;;;20.20;58.70;;;;;;4969276;28;20038;-61
2023/07/20 03:11:27;;;;;;;2.92;1.58;;;20.20;58.70;;;;;;4969043;28;20050;-62
2023/07/20 03:13:53;;;;;;;1.70;1.60;;;20.20;59.00;;;;;;4969218;28;20333;-61
2023/07/20 03:16:20;;;;;;;2.22;1.52;;;20.10;59.10;;;;;;4971604;28;20558;-61
2023/07/20 03:18:46;;;;;;;2.60;1.67;;;20.20;59.10;;;;;;4969859;28;20741;-59
2023/07/20 03:21:12;;;;;;;1.80;1.58;;;20.10;59.10;;;;;;4968691;28;20089;-60
2023/07/20 03:23:38;;;;;;;2.15;1.80;;;20.10;58.70;;;;;;4969684;28;20509;-61
2023/07/20 03:26:04;;;;;;;2.22;1.83;;;20.10;59.00;;;;;;4967417;28;20050;-61
2023/07/20 03:28:29;;;;;;;2.95;1.80;;;20.00;58.80;;;;;;4967732;28;20511;-62
2023/07/20 03:30:56;;;;;;;3.03;1.85;;;20.00;58.80;;;;;;4970608;28;20053;-61
2023/07/20 03:33:24;;;;;;;3.78;2.10;;;19.90;58.90;;;;;;4969509;28;20178;-61
2023/07/20 03:35:50;;;;;;;4.88;1.75;;;19.90;59.70;;;;;;4969856;28;20042;-62
2023/07/20 03:38:15;;;;;;;1.50;1.40;;;19.90;59.10;;;;;;4969064;28;20434;-62
2023/07/20 03:40:50;;;;;;;2.65;1.58;;;19.90;58.90;;;;;;4967333;28;20031;-62
2023/07/20 03:43:15;;;;;;;2.50;1.63;;;19.90;59.30;;;;;;4967932;28;20585;-62
2023/07/20 03:45:41;;;;;;;4.22;1.83;;;19.90;59.20;;;;;;4969733;28;20049;-61
2023/07/20 03:48:06;;;;;;;2.65;1.65;;;19.80;59.20;;;;;;4970977;28;20113;-60
2023/07/20 03:50:33;;;;;;;1.75;1.63;;;19.80;59.30;;;;;;4968350;28;20071;-60
2023/07/20 03:52:58;;;;;;;2.25;1.70;;;19.70;59.40;;;;;;4968910;28;21580;-61
2023/07/20 03:55:24;;;;;;;3.10;1.70;;;19.70;59.30;;;;;;4968084;28;20027;-61
2023/07/20 03:57:50;;;;;;;2.22;1.80;;;19.70;59.40;;;;;;4969418;28;20035;-60
2023/07/20 04:00:18;;;;;;;2.35;1.80;;;19.70;59.90;;;;;;4967091;28;20129;-62
2023/07/20 04:02:43;;;;;;;2.95;1.98;;;19.70;59.90;;;;;;4970811;28;20499;-61
2023/07/20 04:05:09;;;;;;;1.83;1.67;;;19.70;60.00;;;;;;4969083;28;20054;-60
2023/07/20 04:07:35;;;;;;;2.35;1.58;;;19.60;60.00;;;;;;4968573;28;20814;-58
2023/07/20 04:10:00;;;;;;;1.80;1.70;;;19.60;60.20;;;;;;4967997;28;20616;-61
2023/07/20 04:12:26;;;;;;;2.20;2.00;;;19.60;60.10;;;;;;4970483;28;20035;-61
2023/07/20 04:14:51;;;;;;;3.83;2.00;;;19.60;60.30;;;;;;4967427;28;20037;-61
2023/07/20 04:17:18;;;;;;;3.03;2.15;;;19.60;60.30;;;;;;4970364;28;20039;-61
2023/07/20 04:19:44;;;;;;;5.30;2.20;;;19.60;60.10;;;;;;4970216;28;20130;-60
2023/07/20 04:22:09;;;;;;;2.72;1.98;;;19.60;60.00;;;;;;4968817;28;20027;-62
2023/07/20 04:24:35;;;;;;;10.43;2.00;;;19.60;60.00;;;;;;4967347;28;20053;-61
2023/07/20 04:27:01;;;;;;;3.65;2.10;;;19.50;60.10;;;;;;4967203;28;20125;-60
2023/07/20 04:29:26;;;;;;;5.45;2.10;;;19.50;60.10;;;;;;4968864;28;20755;-60
2023/07/20 04:31:52;;;;;;;3.35;2.20;;;19.50;60.30;;;;;;4968011;28;20047;-59
2023/07/20 04:34:17;;;;;;;3.75;1.98;;;19.40;60.40;;;;;;4971211;28;20661;-60
2023/07/20 04:36:43;;;;;;;2.03;1.92;;;19.50;60.80;;;;;;4967885;28;20046;-61
2023/07/20 04:39:10;;;;;;;2.47;2.00;;;19.50;61.10;;;;;;4968779;28;20038;-59
2023/07/20 04:41:35;;;;;;;4.57;2.35;;;19.50;61.30;;;;;;4967432;28;20121;-60
2023/07/20 04:44:01;;;;;;;2.38;2.17;;;19.50;61.20;;;;;;4967441;28;20039;-61
2023/07/20 04:46:26;;;;;;;4.18;2.20;;;19.50;60.80;;;;;;4967545;28;20042;-61
2023/07/20 04:48:52;;;;;;;5.45;2.65;;;19.50;60.60;;;;;;4971004;28;20087;-59
2023/07/20 04:51:20;;;;;;;3.17;2.22;;;19.50;60.70;;;;;;4967209;28;20050;-61
2023/07/20 04:53:49;;;;;;;3.05;2.00;;;19.40;60.80;;;;;;4970840;28;20042;-61
2023/07/20 04:56:15;;;;;;;4.20;2.03;;;19.40;60.80;;;;;;4966874;28;20074;-61
2023/07/20 04:58:40;;;;;;;6.20;2.30;;;19.30;60.90;;;;;;4966236;28;20639;-61
2023/07/20 05:01:06;;;;;;;3.35;1.92;;;19.30;61.00;;;;;;4969024;28;20165;-60
2023/07/20 05:03:32;;;;;;;2.97;2.00;;;19.30;61.10;;;;;;4976115;28;20407;-61
2023/07/20 05:05:58;;;;;;;3.38;2.00;;;19.30;61.20;;;;;;4977403;28;20035;-61
2023/07/20 05:08:23;;;;;;;3.38;2.13;;;19.20;61.20;;;;;;4976279;28;20385;-61
2023/07/20 05:10:49;;;;;;;2.88;1.98;;;19.30;61.30;;;;;;4978557;28;20042;-58
2023/07/20 05:13:15;;;;;;;3.63;2.20;;;19.30;61.30;;;;;;4974429;28;20379;-60
2023/07/20 05:15:40;;;;;;;1.95;1.85;;;19.30;61.60;;;;;;4976231;28;20061;-61
2023/07/20 05:18:06;;;;;;;2.70;2.03;;;19.30;61.30;;;;;;4970308;28;20590;-61
2023/07/20 05:20:33;;;;;;;2.53;2.15;;;19.40;61.40;;;;;;4969187;28;20094;-62
2023/07/20 05:22:59;;;;;;;3.92;2.30;;;19.40;61.50;;;;;;4966511;28;20046;-61
2023/07/20 05:25:24;;;;;;;3.03;1.85;;;19.50;61.70;;;;;;4966364;28;20072;-60
2023/07/20 05:27:50;;;;;;;3.47;2.20;;;19.50;61.70;;;;;;4967277;28;20031;-61
2023/07/20 05:30:16;;;;;;;2.03;1.83;;;19.50;61.70;;;;;;4971343;28;20035;-62
2023/07/20 05:32:41;;;;;;;3.85;2.03;;;19.60;61.50;;;;;;4971471;28;20372;-61
2023/07/20 05:35:08;;;;;;;4.93;1.88;;;19.60;61.30;;;;;;4973637;28;20097;-61
2023/07/20 05:37:34;;;;;;;10.20;2.17;;;19.70;61.30;;;;;;4968970;28;20165;-61
2023/07/20 05:39:59;;;;;;;2.70;1.83;;;19.70;62.40;;;;;;4972050;28;20049;-62
2023/07/20 05:42:25;;;;;;;2.83;1.77;;;19.80;61.30;;;;;;4971738;28;20498;-60
2023/07/20 05:44:52;;;;;;;3.20;2.08;;;19.90;61.00;;;;;;4970570;28;20421;-61
2023/07/20 05:47:18;;;;;;;2.00;1.85;;;19.90;60.80;;;;;;4973029;28;20084;-60
2023/07/20 05:49:43;;;;;;;2.63;1.75;;;20.00;60.00;;;;;;4972240;28;20027;-61
2023/07/20 05:52:09;;;;;;;2.08;1.58;;;20.00;59.50;;;;;;4972397;28;20038;-62
2023/07/20 05:54:35;;;;;;;3.83;2.00;;;20.10;59.80;;;;;;4969938;28;21794;-61
2023/07/20 05:57:00;;;;;;;2.33;1.80;;;20.20;60.60;;;;;;4971498;28;20039;-61
2023/07/20 05:59:29;;;;;;;2.13;1.58;;;20.20;59.30;;;;;;4969879;28;20594;-61
2023/07/20 06:01:55;;;;;;;3.38;1.80;;;20.30;59.00;;;;;;4970830;28;20042;-62
2023/07/20 06:04:20;;;;;;;2.15;1.70;;;20.30;59.00;;;;;;4970627;28;20031;-61
2023/07/20 06:06:46;;;;;;;3.85;1.60;;;20.40;58.70;;;;;;4972761;28;20524;-61
2023/07/20 06:09:12;;;;;;;3.15;1.48;;;20.50;58.60;;;;;;4971593;28;20505;-61
2023/07/20 06:11:40;;;;;;;2.20;1.60;;;20.50;58.20;;;;;;4972375;28;20035;-61
2023/07/20 06:14:06;;;;;;;1.60;1.25;;;20.60;58.00;;;;;;4970358;28;20038;-61
2023/07/20 06:16:32;;;;;;;2.22;1.55;;;20.60;57.80;;;;;;4971581;28;20045;-61
2023/07/20 06:19:00;;;;;;;2.88;1.40;;;20.60;57.50;;;;;;4978267;28;20075;-60
2023/07/20 06:21:25;;;;;;;3.05;1.65;;;20.60;57.40;;;;;;4971803;28;20035;-62
2023/07/20 06:23:51;;;;;;;2.00;1.48;;;20.60;57.60;;;;;;4970370;28;20038;-62
2023/07/20 06:26:17;;;;;;;2.75;1.42;;;20.60;58.10;;;;;;4970347;28;20036;-61
2023/07/20 06:28:42;;;;;;;4.72;1.65;;;20.60;58.00;;;;;;4969635;28;20458;-61
2023/07/20 06:31:08;;;;;;;1.33;1.20;;;20.60;57.70;;;;;;4969639;28;20038;-61
2023/07/20 06:33:34;;;;;;;1.50;1.40;;;20.60;57.50;;;;;;4970185;28;20038;-60
2023/07/20 06:36:00;;;;;;;2.95;1.40;;;20.60;57.70;;;;;;4970261;28;20046;-62
2023/07/20 06:38:26;;;;;;;5.45;1.45;;;20.60;57.80;;;;;;4972897;28;20034;-60
2023/07/20 06:40:52;;;;;;;8.45;1.60;;;20.60;57.70;;;;;;4969345;28;20475;-59
2023/07/20 06:43:18;;;;;;;1.67;1.45;;;20.60;57.70;;;;;;4972259;28;20030;-62
2023/07/20 06:45:43;;;;;;;4.47;1.52;;;20.60;57.50;;;;;;4970565;28;20604;-61
2023/07/20 06:48:09;;;;;;;3.10;1.77;;;20.60;57.70;;;;;;4968093;28;20031;-61
2023/07/20 06:50:35;;;;;;;2.88;1.42;;;20.70;57.60;;;;;;4968161;28;20092;-61
2023/07/20 06:53:03;;;;;;;2.65;1.70;;;20.70;57.70;;;;;;4971336;28;20087;-60
2023/07/20 06:55:29;;;;;;;4.05;1.55;;;20.70;57.60;;;;;;4974242;28;20065;-61
2023/07/20 06:57:55;;;;;;;3.42;1.50;;;20.80;57.80;;;;;;4975120;28;20518;-60
2023/07/20 07:00:20;;;;;;;2.22;1.58;;;20.80;57.90;;;;;;4969130;28;20441;-60
2023/07/20 07:02:46;;;;;;;2.33;1.33;;;20.80;58.00;;;;;;4976208;28;20050;-61
2023/07/20 07:05:13;;;;;;;3.95;1.40;;;20.80;57.80;;;;;;4977270;28;20050;-61
2023/07/20 07:07:39;;;;;;;2.33;1.40;;;20.80;58.00;;;;;;4977150;28;20506;-61
2023/07/20 07:10:05;;;;;;;3.03;1.80;;;20.80;58.00;;;;;;4977529;28;20059;-59
2023/07/20 07:12:31;;;;;;;2.38;1.58;;;20.90;57.60;;;;;;4976323;28;20096;-59
2023/07/20 07:14:56;;;;;;;2.00;1.40;;;21.00;58.00;;;;;;4976440;28;20030;-61
2023/07/20 07:17:22;;;;;;;1.65;1.55;;;21.00;57.90;;;;;;4971285;28;20593;-61
2023/07/20 07:19:48;;;;;;;3.05;1.40;;;21.10;58.60;;;;;;4968557;28;20126;-60
2023/07/20 07:22:13;;;;;;;4.00;1.58;;;21.20;57.40;;;;;;4977669;28;20465;-60
2023/07/20 07:24:41;;;;;;;3.22;1.90;;;21.20;57.10;;;;;;4976873;28;20041;-61
2023/07/20 07:27:08;;;;;;;2.72;1.50;;;21.20;56.90;;;;;;4977557;28;20414;-60
2023/07/20 07:29:33;;;;;;;2.13;1.65;;;21.20;57.00;;;;;;4977070;28;20035;-60
2023/07/20 07:31:59;;;;;;;2.33;1.50;;;21.30;57.10;;;;;;4977034;28;20034;-62
2023/07/20 07:34:25;;;;;;;1.77;1.40;;;21.30;57.10;;;;;;4978072;28;20041;-59
2023/07/20 07:36:51;;;;;;;1.75;1.50;;;21.30;57.10;;;;;;4977741;28;20038;-61
2023/07/20 07:39:16;;;;;;;5.18;2.90;;;21.40;57.10;;;;;;4976158;28;20502;-62
2023/07/20 07:41:42;;;;;;;3.15;1.83;;;21.50;57.20;;;;;;4977352;28;20042;-61
2023/07/20 07:44:07;;;;;;;1.75;1.40;;;21.60;57.00;;;;;;4976846;28;20066;-61
2023/07/20 07:46:33;;;;;;;2.42;1.73;;;21.70;56.70;;;;;;4977365;28;20030;-59
2023/07/20 07:48:58;;;;;;;3.22;1.40;;;21.80;56.40;;;;;;4976273;28;20060;-61
2023/07/20 07:51:24;;;;;;;1.45;1.33;;;21.90;56.00;;;;;;4976432;28;20421;-61
2023/07/20 07:53:50;;;;;;;3.22;1.73;;;22.00;56.00;;;;;;4977812;28;20039;-60
2023/07/20 07:56:16;;;;;;;1.85;1.40;;;22.10;55.60;;;;;;4976154;28;20108;-60
2023/07/20 07:58:42;;;;;;;2.58;1.48;;;22.10;55.00;;;;;;4975976;28;20585;-60
2023/07/20 08:01:09;;;;;;;5.10;1.50;;;22.10;55.00;;;;;;4976720;28;20166;-62
2023/07/20 08:03:35;;;;;;;2.13;1.55;;;22.10;54.40;;;;;;4975194;28;20038;-60
2023/07/20 08:06:04;;;;;;;1.80;1.50;;;22.20;54.60;;;;;;4978054;28;20461;-59
2023/07/20 08:08:30;;;;;;;1.58;1.20;;;22.20;54.80;;;;;;4978261;28;20062;-61
2023/07/20 08:10:56;;;;;;;2.78;1.52;;;22.20;54.40;;;;;;4979681;28;20038;-60
2023/07/20 08:13:21;;;;;;;2.65;1.60;;;22.30;54.90;;;;;;4967445;28;20035;-62
2023/07/20 08:15:51;;;;;;;2.47;1.20;;;22.40;54.60;;;;;;4973441;28;20035;-62
2023/07/20 08:18:17;;;;;;;1.73;1.20;;;22.40;53.70;;;;;;4974186;28;20041;-62
2023/07/20 08:20:47;;;;;;;1.58;1.25;;;22.50;53.70;;;;;;4969790;28;20225;-63
2023/07/20 08:23:13;;;;;;;1.77;1.63;;;22.50;53.50;;;;;;4974463;28;20066;-60
2023/07/20 08:25:41;;;;;;;1.42;1.33;;;22.60;53.50;;;;;;4974083;28;20407;-61
2023/07/20 08:28:07;;;;;;;2.97;1.20;;;22.70;53.50;;;;;;4972428;28;20129;-62
2023/07/20 08:30:44;;;;;;;1.88;1.33;;;22.70;53.40;;;;;;4971392;28;20570;-61
2023/07/20 08:33:12;;;;;;;1.52;1.35;;;22.80;53.30;;;;;;4970742;28;20273;-60
2023/07/20 08:35:38;;;;;;;1.23;1.05;;;22.90;53.60;;;;;;4974422;28;20039;-61
2023/07/20 08:38:04;;;;;;;3.05;1.35;;;23.00;53.80;;;;;;4964407;28;20034;-61
2023/07/20 08:40:38;;;;;;;1.42;1.00;;;23.10;53.80;;;;;;4965193;28;20038;-62
2023/07/20 08:43:04;;;;;;;4.00;1.40;;;23.10;52.60;;;;;;4971633;28;20070;-61
2023/07/20 08:45:33;;;;;;;1.60;1.50;;;23.20;52.30;;;;;;4976426;28;20057;-62
2023/07/20 08:48:02;;;;;;;2.17;1.40;;;23.30;51.60;;;;;;4973088;28;20572;-60
2023/07/20 08:50:30;;;;;;;2.78;1.20;;;23.30;52.00;;;;;;4974016;28;20062;-61
2023/07/20 08:52:58;;;;;;;1.52;1.17;;;23.40;51.30;;;;;;4972163;28;20041;-62
2023/07/20 08:55:25;;;;;;;2.33;1.00;;;23.40;50.50;;;;;;4975342;28;20506;-59
2023/07/20 08:57:54;;;;;;;2.42;1.13;;;23.40;50.30;;;;;;4975803;28;20043;-63
2023/07/20 09:00:21;;;;;;;1.77;0.90;;;23.50;50.20;;;;;;4972763;28;20031;-62
2023/07/20 09:02:50;;;;;;;1.30;1.15;;;23.50;50.70;;;;;;4979352;28;20045;-62
2023/07/20 09:05:16;;;;;;;2.30;1.20;;;23.50;50.90;;;;;;4982614;28;20043;-61
2023/07/20 09:07:41;;;;;;;1.48;1.30;;;23.50;50.80;;;;;;4982958;28;20033;-61
2023/07/20 09:10:08;;;;;;;1.55;1.42;;;23.60;51.30;;;;;;4984857;28;20431;-60
2023/07/20 09:12:42;;;;;;;2.28;1.30;;;23.60;50.60;;;;;;4983688;28;20114;-62
2023/07/20 09:15:09;;;;;;;2.42;1.35;;;23.60;51.00;;;;;;4982809;28;20038;-61
2023/07/20 09:17:35;;;;;;;1.52;1.33;;;23.60;50.70;;;;;;4982999;28;20031;-61
2023/07/20 09:20:07;;;;;;;2.05;1.42;;;23.60;50.60;;;;;;4979733;28;20216;-61
2023/07/20 09:22:34;;;;;;;2.03;1.40;;;23.60;51.00;;;;;;4978469;28;20038;-60
2023/07/20 09:25:00;;;;;;;1.52;1.23;;;23.70;51.50;;;;;;4975222;28;20592;-62
2023/07/20 09:27:37;;;;;;;1.23;1.13;;;23.80;52.00;;;;;;4973522;28;20122;-61
2023/07/20 09:30:03;;;;;;;1.52;1.20;;;23.90;51.30;;;;;;4971129;28;20035;-61
2023/07/20 09:32:29;;;;;;;1.20;1.10;;;24.00;51.60;;;;;;4976895;28;20086;-63
2023/07/20 09:34:55;;;;;;;3.65;1.30;;;24.10;51.30;;;;;;4968683;28;20043;-63
2023/07/20 09:37:22;;;;;;;1.80;1.20;;;24.10;51.20;;;;;;4977553;28;20030;-61
2023/07/20 09:39:49;;;;;;;3.88;1.35;;;24.20;50.50;;;;;;4980976;28;20086;-62
2023/07/20 09:42:15;;;;;;;3.42;1.42;;;24.30;50.40;;;;;;4983136;28;20035;-62
2023/07/20 09:44:43;;;;;;;2.58;1.40;;;24.40;51.00;;;;;;4981929;28;20030;-63
2023/07/20 09:47:09;;;;;;;1.50;1.30;;;24.50;51.30;;;;;;4974181;28;20514;-63
2023/07/20 09:49:40;;;;;;;1.30;1.13;;;24.60;50.90;;;;;;4965272;28;20059;-63
2023/07/20 09:52:08;;;;;;;2.63;1.30;;;24.70;50.50;;;;;;4978497;28;20132;-64
2023/07/20 09:54:33;;;;;;;1.65;1.33;;;24.80;50.50;;;;;;4976558;28;20066;-63
2023/07/20 09:57:01;;;;;;;1.65;1.30;;;24.90;50.30;;;;;;4972431;28;20058;-63
2023/07/20 09:59:26;;;;;;;1.40;1.30;;;25.10;50.10;;;;;;4958231;28;20046;-63
2023/07/20 10:01:57;;;;;;;2.60;1.30;;;25.10;50.50;;;;;;4971104;28;20121;-61
2023/07/20 10:04:23;;;;;;;1.55;1.13;;;25.30;49.40;;;;;;4979143;28;20034;-62
2023/07/20 10:06:52;;;;;;;2.42;1.30;;;25.40;49.20;;;;;;4975764;28;20066;-61
2023/07/20 10:09:18;;;;;;;1.83;1.30;;;25.40;48.70;;;;;;4981269;28;20045;-62
2023/07/20 10:11:49;;;;;;;2.67;1.30;;;25.30;47.90;;;;;;4984665;28;20027;-62
2023/07/20 10:14:19;;;;;;;1.40;1.30;;;25.30;47.90;;;;;;4977807;28;20161;-62
2023/07/20 10:16:52;;;;;;;3.22;1.50;;;25.30;48.30;;;;;;4979941;28;20038;-63
2023/07/20 10:19:47;;;;;;;2.38;1.20;;;25.20;48.50;;;;;;4979665;28;20035;-61
2023/07/20 10:22:17;;;;;;;1.90;1.40;;;25.20;48.20;;;;;;4980269;28;20039;-62
2023/07/20 10:24:46;;;;;;;1.95;1.40;;;25.20;48.70;;;;;;4980068;28;20122;-61
2023/07/20 10:27:12;;;;;;;1.77;1.38;;;25.20;48.90;;;;;;4979668;28;20094;-63
2023/07/20 10:29:40;;;;;;;1.40;1.23;;;25.10;48.50;;;;;;4974457;28;20387;-61
2023/07/20 10:32:07;;;;;;;2.17;1.25;;;25.20;48.50;;;;;;4975408;28;20151;-62
2023/07/20 10:34:33;;;;;;;3.33;1.63;;;25.20;49.20;;;;;;4977890;28;20070;-61
2023/07/20 10:36:59;;;;;;;1.65;1.20;;;25.20;48.10;;;;;;4980009;28;20046;-63
2023/07/20 10:39:27;;;;;;;1.65;1.27;;;25.20;48.50;;;;;;4979400;28;20210;-61
2023/07/20 10:42:03;;;;;;;2.10;1.60;;;25.20;49.00;;;;;;4979662;28;20058;-60
2023/07/20 10:44:29;;;;;;;2.60;2.40;;;25.40;49.30;;;;;;4979196;28;20110;-61
2023/07/20 10:47:05;;;;;;;1.50;1.33;;;25.40;48.90;;;;;;4980650;28;20084;-61
2023/07/20 10:49:33;;;;;;;2.03;1.42;;;25.50;48.10;;;;;;4980385;28;20031;-61
2023/07/20 10:52:03;;;;;;;1.77;1.20;;;25.50;48.70;;;;;;4980383;28;20039;-62
2023/07/20 10:54:28;;;;;;;2.60;1.40;;;25.60;48.50;;;;;;4979654;28;20371;-62
2023/07/20 10:57:18;;;;;;;3.08;1.50;;;25.70;48.70;;;;;;4980690;28;20042;-62
2023/07/20 10:59:47;;;;;;;1.73;1.40;;;25.80;48.70;;;;;;4979351;28;20034;-62
2023/07/20 11:02:12;;;;;;;1.77;1.23;;;26.00;48.50;;;;;;4977389;28;20153;-61
2023/07/20 11:04:43;;;;;;;1.50;1.40;;;26.10;47.80;;;;;;4975797;28;20118;-60
2023/07/20 11:07:09;;;;;;;2.72;1.13;;;26.20;46.80;;;;;;4976797;28;20039;-62
2023/07/20 11:09:36;;;;;;;1.85;1.38;;;26.20;47.30;;;;;;4977804;28;20061;-60
2023/07/20 11:12:18;;;;;;;1.98;1.10;;;26.10;46.20;;;;;;4976286;28;20042;-62
2023/07/20 11:14:57;;;;;;;1.48;1.38;;;26.10;45.60;;;;;;4976056;28;20042;-62
2023/07/20 11:17:32;;;;;;;1.60;1.45;;;26.10;46.20;;;;;;4977698;28;20047;-61
2023/07/20 11:20:03;;;;;;;1.30;1.20;;;26.10;45.40;;;;;;4978107;28;20410;-61
2023/07/20 11:22:31;;;;;;;1.55;1.30;;;26.10;45.90;;;;;;4978315;28;20097;-62
2023/07/20 11:24:57;;;;;;;2.10;1.10;;;26.00;45.80;;;;;;4978318;28;20562;-61
2023/07/20 11:27:23;;;;;;;1.77;1.25;;;26.00;45.70;;;;;;4977217;28;20441;-62
2023/07/20 11:29:50;;;;;;;1.85;1.20;;;26.00;45.80;;;;;;4978317;28;20027;-61
2023/07/20 11:32:23;;;;;;;2.88;1.38;;;26.10;46.10;;;;;;4978162;28;20049;-62
2023/07/20 11:34:49;;;;;;;1.80;1.25;;;26.20;46.30;;;;;;4978488;28;20035;-60
2023/07/20 11:37:14;;;;;;;1.30;1.10;;;26.20;46.60;;;;;;4978799;28;20050;-62
2023/07/20 11:39:40;;;;;;;1.58;1.10;;;26.30;45.90;;;;;;4978201;28;20034;-61
2023/07/20 11:42:09;;;;;;;1.48;1.35;;;26.40;45.90;;;;;;4979153;28;20520;-61
2023/07/20 11:44:34;;;;;;;1.23;1.13;;;26.50;45.10;;;;;;4978433;28;20419;-61
2023/07/20 11:47:01;;;;;;;2.22;1.42;;;26.50;45.40;;;;;;4978077;28;20042;-62
2023/07/20 11:49:27;;;;;;;2.60;1.20;;;26.50;44.40;;;;;;4979479;28;20039;-62
2023/07/20 11:51:53;;;;;;;1.83;1.15;;;26.60;44.50;;;;;;4978571;28;20035;-61
2023/07/20 11:54:18;;;;;;;3.55;1.13;;;26.60;44.40;;;;;;4979671;28;20506;-63
2023/07/20 11:56:44;;;;;;;3.05;1.10;;;26.60;44.60;;;;;;4978417;28;20045;-61
2023/07/20 11:59:09;;;;;;;1.15;1.05;;;26.60;45.20;;;;;;4976558;28;20054;-63
2023/07/20 12:01:35;;;;;;;2.35;1.23;;;26.60;44.80;;;;;;4977089;28;20039;-62
2023/07/20 12:04:03;;;;;;;1.95;1.20;;;26.60;45.20;;;;;;4970586;28;20043;-63
2023/07/20 12:06:29;;;;;;;1.60;1.15;;;26.70;44.80;;;;;;4975736;28;20046;-61
2023/07/20 12:08:57;;;;;;;1.33;1.20;;;26.70;44.80;;;;;;4975806;28;20035;-62
2023/07/20 12:11:34;;;;;;;1.52;1.23;;;26.70;44.00;;;;;;4977301;28;20058;-63
2023/07/20 12:14:00;;;;;;;4.63;1.38;;;26.70;43.80;;;;;;4976626;28;20632;-60
2023/07/20 12:16:29;;;;;;;1.55;1.02;;;26.60;44.10;;;;;;4978005;28;20129;-61
2023/07/20 12:19:08;;;;;;;1.25;1.10;;;26.50;44.50;;;;;;4978582;28;20089;-62
2023/07/20 12:21:39;;;;;;;1.60;1.15;;;26.60;44.40;;;;;;4978371;28;20031;-62
2023/07/20 12:24:05;;;;;;;1.80;1.15;;;26.50;44.70;;;;;;4978475;28;20041;-60
2023/07/20 12:26:33;;;;;;;1.42;1.20;;;26.50;44.90;;;;;;4978533;28;20056;-61
2023/07/20 12:28:59;;;;;;;6.47;1.10;;;26.60;44.40;;;;;;4978453;28;20053;-62
2023/07/20 12:31:26;;;;;;;2.10;1.20;;;26.60;45.00;;;;;;4978079;28;20062;-62
2023/07/20 12:33:52;;;;;;;1.38;1.10;;;26.70;45.00;;;;;;4977045;28;20579;-62
2023/07/20 12:36:18;;;;;;;2.70;1.20;;;26.70;45.50;;;;;;4977134;28;20047;-62
2023/07/20 12:38:45;;;;;;;1.20;1.10;;;26.80;45.20;;;;;;4976994;28;20100;-62
2023/07/20 12:41:13;;;;;;;2.35;1.10;;;26.80;44.80;;;;;;4978016;28;20046;-63
2023/07/20 12:43:38;;;;;;;1.30;1.20;;;26.90;44.40;;;;;;4978533;28;20384;-63
2023/07/20 12:46:04;;;;;;;3.33;1.20;;;27.00;44.40;;;;;;4976917;28;20042;-62
2023/07/20 12:48:30;;;;;;;3.95;1.25;;;27.10;44.30;;;;;;4978234;28;20041;-63